sensor_id;sensor_type;location;lat;lon;timestamp;P1;durP1;ratioP1;P2;durP2;ratioP2
8048;SDS011;20935;42.660;23.342;2023-05-13T00:01:16;2.97;;;2.23;;
8048;SDS011;20935;42.660;23.342;2023-05-13T00:04:01;2.60;;;2.13;;
8048;SDS011;20935;42.660;23.342;2023-05-13T00:06:47;2.70;;;2.50;;
8048;SDS011;20935;42.660;23.342;2023-05-13T00:09:32;2.60;;;2.40;;
8048;SDS011;20935;42.660;23.342;2023-05-13T00:12:19;2.63;;;2.43;;
8048;SDS011;20935;42.660;23.342;2023-05-13T00:15:05;3.20;;;2.90;;
8048;SDS011;20935;42.660;23.342;2023-05-13T00:17:52;2.50;;;2.30;;
8048;SDS011;20935;42.660;23.342;2023-05-13T00:20:37;3.73;;;2.57;;
8048;SDS011;20935;42.660;23.342;2023-05-13T00:23:23;2.60;;;2.40;;
8048;SDS011;20935;42.660;23.342;2023-05-13T00:26:08;2.40;;;2.20;;
8048;SDS011;20935;42.660;23.342;2023-05-13T00:28:55;2.30;;;2.10;;
8048;SDS011;20935;42.660;23.342;2023-05-13T00:31:40;2.17;;;2.00;;
8048;SDS011;20935;42.660;23.342;2023-05-13T00:34:26;2.30;;;2.10;;
8048;SDS011;20935;42.660;23.342;2023-05-13T00:37:11;3.53;;;2.63;;
8048;SDS011;20935;42.660;23.342;2023-05-13T00:39:56;2.83;;;2.40;;
8048;SDS011;20935;42.660;23.342;2023-05-13T00:42:42;2.03;;;1.93;;
8048;SDS011;20935;42.660;23.342;2023-05-13T00:45:29;2.40;;;2.20;;
8048;SDS011;20935;42.660;23.342;2023-05-13T00:48:14;2.40;;;2.20;;
8048;SDS011;20935;42.660;23.342;2023-05-13T00:51:00;2.67;;;2.47;;
8048;SDS011;20935;42.660;23.342;2023-05-13T00:53:45;2.23;;;2.03;;
8048;SDS011;20935;42.660;23.342;2023-05-13T00:56:31;2.40;;;2.00;;
8048;SDS011;20935;42.660;23.342;2023-05-13T00:59:16;3.17;;;2.50;;
8048;SDS011;20935;42.660;23.342;2023-05-13T01:02:05;2.23;;;2.00;;
8048;SDS011;20935;42.660;23.342;2023-05-13T01:04:57;4.23;;;2.13;;
8048;SDS011;20935;42.660;23.342;2023-05-13T01:07:51;2.87;;;2.30;;
8048;SDS011;20935;42.660;23.342;2023-05-13T01:10:46;2.37;;;2.17;;
8048;SDS011;20935;42.660;23.342;2023-05-13T01:13:35;2.07;;;1.90;;
8048;SDS011;20935;42.660;23.342;2023-05-13T01:16:26;2.77;;;2.30;;
8048;SDS011;20935;42.660;23.342;2023-05-13T01:19:21;2.40;;;2.20;;
8048;SDS011;20935;42.660;23.342;2023-05-13T01:22:18;2.67;;;2.33;;
8048;SDS011;20935;42.660;23.342;2023-05-13T01:25:03;4.63;;;2.10;;
8048;SDS011;20935;42.660;23.342;2023-05-13T01:27:49;2.13;;;1.93;;
8048;SDS011;20935;42.660;23.342;2023-05-13T01:30:34;1.93;;;1.83;;
8048;SDS011;20935;42.660;23.342;2023-05-13T01:33:20;2.50;;;2.30;;
8048;SDS011;20935;42.660;23.342;2023-05-13T01:36:06;2.13;;;2.00;;
8048;SDS011;20935;42.660;23.342;2023-05-13T01:38:54;3.30;;;2.20;;
8048;SDS011;20935;42.660;23.342;2023-05-13T01:41:40;2.40;;;2.20;;
8048;SDS011;20935;42.660;23.342;2023-05-13T01:44:27;2.60;;;2.40;;
8048;SDS011;20935;42.660;23.342;2023-05-13T01:47:13;2.27;;;2.10;;
8048;SDS011;20935;42.660;23.342;2023-05-13T01:49:58;3.17;;;2.10;;
8048;SDS011;20935;42.660;23.342;2023-05-13T01:52:43;2.50;;;2.20;;
8048;SDS011;20935;42.660;23.342;2023-05-13T01:55:30;3.07;;;2.37;;
8048;SDS011;20935;42.660;23.342;2023-05-13T01:58:16;2.43;;;2.23;;
8048;SDS011;20935;42.660;23.342;2023-05-13T02:01:01;3.00;;;2.20;;
8048;SDS011;20935;42.660;23.342;2023-05-13T02:03:47;2.53;;;2.33;;
8048;SDS011;20935;42.660;23.342;2023-05-13T02:06:32;2.47;;;2.27;;
8048;SDS011;20935;42.660;23.342;2023-05-13T02:09:18;2.30;;;2.20;;
8048;SDS011;20935;42.660;23.342;2023-05-13T02:12:05;2.47;;;2.27;;
8048;SDS011;20935;42.660;23.342;2023-05-13T02:14:52;2.03;;;1.90;;
8048;SDS011;20935;42.660;23.342;2023-05-13T02:17:37;2.00;;;1.90;;
8048;SDS011;20935;42.660;23.342;2023-05-13T02:20:23;3.40;;;2.30;;
8048;SDS011;20935;42.660;23.342;2023-05-13T02:23:09;2.40;;;2.20;;
8048;SDS011;20935;42.660;23.342;2023-05-13T02:25:54;2.57;;;2.07;;
8048;SDS011;20935;42.660;23.342;2023-05-13T02:28:41;2.17;;;1.97;;
8048;SDS011;20935;42.660;23.342;2023-05-13T02:31:26;2.30;;;2.10;;
8048;SDS011;20935;42.660;23.342;2023-05-13T02:34:11;2.40;;;2.20;;
8048;SDS011;20935;42.660;23.342;2023-05-13T02:36:57;2.30;;;2.00;;
8048;SDS011;20935;42.660;23.342;2023-05-13T02:39:43;2.03;;;1.90;;
8048;SDS011;20935;42.660;23.342;2023-05-13T02:42:28;2.53;;;2.33;;
8048;SDS011;20935;42.660;23.342;2023-05-13T02:45:15;2.40;;;2.07;;
8048;SDS011;20935;42.660;23.342;2023-05-13T02:48:01;2.47;;;2.03;;
8048;SDS011;20935;42.660;23.342;2023-05-13T02:50:46;2.30;;;2.10;;
8048;SDS011;20935;42.660;23.342;2023-05-13T02:53:32;2.07;;;1.97;;
8048;SDS011;20935;42.660;23.342;2023-05-13T02:56:17;2.50;;;2.30;;
8048;SDS011;20935;42.660;23.342;2023-05-13T02:59:03;4.00;;;2.77;;
8048;SDS011;20935;42.660;23.342;2023-05-13T03:01:50;2.20;;;2.00;;
8048;SDS011;20935;42.660;23.342;2023-05-13T03:04:35;2.20;;;2.00;;
8048;SDS011;20935;42.660;23.342;2023-05-13T03:07:21;2.27;;;1.80;;
8048;SDS011;20935;42.660;23.342;2023-05-13T03:10:07;2.03;;;1.90;;
8048;SDS011;20935;42.660;23.342;2023-05-13T03:12:53;2.90;;;1.87;;
8048;SDS011;20935;42.660;23.342;2023-05-13T03:15:39;2.50;;;2.30;;
8048;SDS011;20935;42.660;23.342;2023-05-13T03:18:25;2.30;;;2.10;;
8048;SDS011;20935;42.660;23.342;2023-05-13T03:21:14;2.40;;;2.20;;
8048;SDS011;20935;42.660;23.342;2023-05-13T03:23:59;1.80;;;1.70;;
8048;SDS011;20935;42.660;23.342;2023-05-13T03:26:45;2.50;;;2.13;;
8048;SDS011;20935;42.660;23.342;2023-05-13T03:29:30;2.43;;;2.23;;
8048;SDS011;20935;42.660;23.342;2023-05-13T03:32:15;2.20;;;2.00;;
8048;SDS011;20935;42.660;23.342;2023-05-13T03:35:02;2.00;;;1.90;;
8048;SDS011;20935;42.660;23.342;2023-05-13T03:37:48;2.30;;;2.10;;
8048;SDS011;20935;42.660;23.342;2023-05-13T03:40:34;2.20;;;2.10;;
8048;SDS011;20935;42.660;23.342;2023-05-13T03:43:19;2.23;;;2.03;;
8048;SDS011;20935;42.660;23.342;2023-05-13T03:46:05;2.37;;;2.00;;
8048;SDS011;20935;42.660;23.342;2023-05-13T03:48:50;2.83;;;2.30;;
8048;SDS011;20935;42.660;23.342;2023-05-13T03:51:37;2.30;;;2.10;;
8048;SDS011;20935;42.660;23.342;2023-05-13T03:54:22;2.70;;;2.00;;
8048;SDS011;20935;42.660;23.342;2023-05-13T03:57:08;3.13;;;2.10;;
8048;SDS011;20935;42.660;23.342;2023-05-13T03:59:54;2.57;;;2.00;;
8048;SDS011;20935;42.660;23.342;2023-05-13T04:02:39;2.30;;;2.10;;
8048;SDS011;20935;42.660;23.342;2023-05-13T04:05:25;2.23;;;2.03;;
8048;SDS011;20935;42.660;23.342;2023-05-13T04:08:12;2.40;;;2.00;;
8048;SDS011;20935;42.660;23.342;2023-05-13T04:10:57;2.63;;;2.17;;
8048;SDS011;20935;42.660;23.342;2023-05-13T04:13:43;2.40;;;2.20;;
8048;SDS011;20935;42.660;23.342;2023-05-13T04:16:28;2.30;;;2.10;;
8048;SDS011;20935;42.660;23.342;2023-05-13T04:19:14;3.20;;;2.20;;
8048;SDS011;20935;42.660;23.342;2023-05-13T04:21:59;2.90;;;2.10;;
8048;SDS011;20935;42.660;23.342;2023-05-13T04:24:46;2.60;;;2.30;;
8048;SDS011;20935;42.660;23.342;2023-05-13T04:27:34;2.67;;;2.40;;
8048;SDS011;20935;42.660;23.342;2023-05-13T04:30:20;2.93;;;2.40;;
8048;SDS011;20935;42.660;23.342;2023-05-13T04:33:05;2.80;;;2.50;;
8048;SDS011;20935;42.660;23.342;2023-05-13T04:35:51;2.83;;;2.33;;
8048;SDS011;20935;42.660;23.342;2023-05-13T04:38:36;3.90;;;2.47;;
8048;SDS011;20935;42.660;23.342;2023-05-13T04:41:23;3.63;;;2.77;;
8048;SDS011;20935;42.660;23.342;2023-05-13T04:44:08;3.40;;;2.33;;
8048;SDS011;20935;42.660;23.342;2023-05-13T04:46:53;2.70;;;2.40;;
8048;SDS011;20935;42.660;23.342;2023-05-13T04:49:39;3.77;;;2.70;;
8048;SDS011;20935;42.660;23.342;2023-05-13T04:52:25;3.07;;;2.40;;
8048;SDS011;20935;42.660;23.342;2023-05-13T04:55:10;3.03;;;2.43;;
8048;SDS011;20935;42.660;23.342;2023-05-13T04:57:57;5.23;;;2.80;;
8048;SDS011;20935;42.660;23.342;2023-05-13T05:00:43;6.30;;;2.93;;
8048;SDS011;20935;42.660;23.342;2023-05-13T05:03:28;2.93;;;2.63;;
8048;SDS011;20935;42.660;23.342;2023-05-13T05:06:14;4.50;;;3.27;;
8048;SDS011;20935;42.660;23.342;2023-05-13T05:08:59;5.03;;;2.93;;
8048;SDS011;20935;42.660;23.342;2023-05-13T05:11:45;4.30;;;3.10;;
8048;SDS011;20935;42.660;23.342;2023-05-13T05:14:33;4.53;;;2.80;;
8048;SDS011;20935;42.660;23.342;2023-05-13T05:17:19;3.10;;;2.73;;
8048;SDS011;20935;42.660;23.342;2023-05-13T05:20:05;4.57;;;3.17;;
8048;SDS011;20935;42.660;23.342;2023-05-13T05:22:51;3.70;;;3.13;;
8048;SDS011;20935;42.660;23.342;2023-05-13T05:25:36;2.90;;;2.57;;
8048;SDS011;20935;42.660;23.342;2023-05-13T05:28:22;5.60;;;3.00;;
8048;SDS011;20935;42.660;23.342;2023-05-13T05:31:09;4.40;;;2.97;;
8048;SDS011;20935;42.660;23.342;2023-05-13T05:33:54;4.43;;;3.07;;
8048;SDS011;20935;42.660;23.342;2023-05-13T05:36:40;4.60;;;2.93;;
8048;SDS011;20935;42.660;23.342;2023-05-13T05:39:25;2.90;;;2.30;;
8048;SDS011;20935;42.660;23.342;2023-05-13T05:42:11;3.80;;;2.63;;
8048;SDS011;20935;42.660;23.342;2023-05-13T05:44:56;4.20;;;2.93;;
8048;SDS011;20935;42.660;23.342;2023-05-13T05:47:43;4.40;;;2.80;;
8048;SDS011;20935;42.660;23.342;2023-05-13T05:50:29;4.57;;;3.00;;
8048;SDS011;20935;42.660;23.342;2023-05-13T05:53:14;3.00;;;2.50;;
8048;SDS011;20935;42.660;23.342;2023-05-13T05:56:00;4.30;;;2.90;;
8048;SDS011;20935;42.660;23.342;2023-05-13T05:58:46;3.43;;;2.63;;
8048;SDS011;20935;42.660;23.342;2023-05-13T06:01:31;4.57;;;2.73;;
8048;SDS011;20935;42.660;23.342;2023-05-13T06:04:20;3.07;;;2.70;;
8048;SDS011;20935;42.660;23.342;2023-05-13T06:07:06;4.07;;;2.77;;
8048;SDS011;20935;42.660;23.342;2023-05-13T06:09:51;4.43;;;3.00;;
8048;SDS011;20935;42.660;23.342;2023-05-13T06:12:37;4.00;;;3.00;;
8048;SDS011;20935;42.660;23.342;2023-05-13T06:15:23;4.83;;;3.30;;
8048;SDS011;20935;42.660;23.342;2023-05-13T06:18:09;4.67;;;2.90;;
8048;SDS011;20935;42.660;23.342;2023-05-13T06:20:55;4.53;;;2.80;;
8048;SDS011;20935;42.660;23.342;2023-05-13T06:23:41;4.87;;;2.87;;
8048;SDS011;20935;42.660;23.342;2023-05-13T06:26:26;3.40;;;2.80;;
8048;SDS011;20935;42.660;23.342;2023-05-13T06:29:12;10.10;;;3.10;;
8048;SDS011;20935;42.660;23.342;2023-05-13T06:31:57;20.27;;;3.30;;
8048;SDS011;20935;42.660;23.342;2023-05-13T06:34:43;5.50;;;2.70;;
8048;SDS011;20935;42.660;23.342;2023-05-13T06:37:30;8.33;;;3.10;;
8048;SDS011;20935;42.660;23.342;2023-05-13T06:40:15;3.70;;;2.83;;
8048;SDS011;20935;42.660;23.342;2023-05-13T06:43:00;5.90;;;2.80;;
8048;SDS011;20935;42.660;23.342;2023-05-13T06:45:45;4.13;;;2.87;;
8048;SDS011;20935;42.660;23.342;2023-05-13T06:48:31;5.17;;;2.47;;
8048;SDS011;20935;42.660;23.342;2023-05-13T06:51:16;7.83;;;2.97;;
8048;SDS011;20935;42.660;23.342;2023-05-13T06:54:03;6.60;;;2.83;;
8048;SDS011;20935;42.660;23.342;2023-05-13T06:56:49;3.87;;;2.80;;
8048;SDS011;20935;42.660;23.342;2023-05-13T06:59:34;3.20;;;2.60;;
8048;SDS011;20935;42.660;23.342;2023-05-13T07:02:20;4.30;;;3.00;;
8048;SDS011;20935;42.660;23.342;2023-05-13T07:05:06;6.07;;;3.03;;
8048;SDS011;20935;42.660;23.342;2023-05-13T07:07:51;4.80;;;2.83;;
8048;SDS011;20935;42.660;23.342;2023-05-13T07:10:38;4.07;;;2.40;;
8048;SDS011;20935;42.660;23.342;2023-05-13T07:13:23;4.67;;;2.67;;
8048;SDS011;20935;42.660;23.342;2023-05-13T07:16:09;3.60;;;2.70;;
8048;SDS011;20935;42.660;23.342;2023-05-13T07:18:54;3.90;;;2.63;;
8048;SDS011;20935;42.660;23.342;2023-05-13T07:21:40;3.90;;;2.90;;
8048;SDS011;20935;42.660;23.342;2023-05-13T07:24:25;4.17;;;2.40;;
8048;SDS011;20935;42.660;23.342;2023-05-13T07:27:12;6.80;;;2.73;;
8048;SDS011;20935;42.660;23.342;2023-05-13T07:29:58;3.00;;;2.70;;
8048;SDS011;20935;42.660;23.342;2023-05-13T07:32:44;2.90;;;2.60;;
8048;SDS011;20935;42.660;23.342;2023-05-13T07:35:29;2.60;;;2.40;;
8048;SDS011;20935;42.660;23.342;2023-05-13T07:38:14;5.30;;;2.60;;
8048;SDS011;20935;42.660;23.342;2023-05-13T07:40:59;3.30;;;2.50;;
8048;SDS011;20935;42.660;23.342;2023-05-13T07:43:47;3.20;;;2.70;;
8048;SDS011;20935;42.660;23.342;2023-05-13T07:46:32;5.13;;;2.80;;
8048;SDS011;20935;42.660;23.342;2023-05-13T07:49:17;4.30;;;2.90;;
8048;SDS011;20935;42.660;23.342;2023-05-13T07:52:03;4.90;;;2.50;;
8048;SDS011;20935;42.660;23.342;2023-05-13T07:54:49;6.07;;;2.73;;
8048;SDS011;20935;42.660;23.342;2023-05-13T07:57:35;6.30;;;2.77;;
8048;SDS011;20935;42.660;23.342;2023-05-13T08:00:22;4.10;;;2.77;;
8048;SDS011;20935;42.660;23.342;2023-05-13T08:03:07;3.50;;;2.40;;
8048;SDS011;20935;42.660;23.342;2023-05-13T08:05:53;3.53;;;2.63;;
8048;SDS011;20935;42.660;23.342;2023-05-13T08:08:38;3.47;;;3.00;;
8048;SDS011;20935;42.660;23.342;2023-05-13T08:11:24;3.10;;;2.80;;
8048;SDS011;20935;42.660;23.342;2023-05-13T08:14:09;4.13;;;2.80;;
8048;SDS011;20935;42.660;23.342;2023-05-13T08:16:56;2.93;;;2.57;;
8048;SDS011;20935;42.660;23.342;2023-05-13T08:19:41;3.03;;;2.70;;
8048;SDS011;20935;42.660;23.342;2023-05-13T08:22:27;6.40;;;2.53;;
8048;SDS011;20935;42.660;23.342;2023-05-13T08:25:13;5.87;;;3.20;;
8048;SDS011;20935;42.660;23.342;2023-05-13T08:27:59;3.13;;;2.57;;
8048;SDS011;20935;42.660;23.342;2023-05-13T08:30:46;3.37;;;2.57;;
8048;SDS011;20935;42.660;23.342;2023-05-13T08:33:33;4.10;;;2.80;;
8048;SDS011;20935;42.660;23.342;2023-05-13T08:36:18;5.83;;;2.60;;
8048;SDS011;20935;42.660;23.342;2023-05-13T08:39:04;3.20;;;2.63;;
8048;SDS011;20935;42.660;23.342;2023-05-13T08:41:50;3.07;;;2.60;;
8048;SDS011;20935;42.660;23.342;2023-05-13T08:44:38;3.03;;;2.73;;
8048;SDS011;20935;42.660;23.342;2023-05-13T08:47:28;5.47;;;2.37;;
8048;SDS011;20935;42.660;23.342;2023-05-13T08:50:20;7.57;;;2.83;;
8048;SDS011;20935;42.660;23.342;2023-05-13T08:53:06;4.43;;;2.53;;
8048;SDS011;20935;42.660;23.342;2023-05-13T08:55:51;2.77;;;2.57;;
8048;SDS011;20935;42.660;23.342;2023-05-13T08:58:38;2.80;;;2.50;;
8048;SDS011;20935;42.660;23.342;2023-05-13T09:01:23;6.60;;;2.90;;
8048;SDS011;20935;42.660;23.342;2023-05-13T09:04:10;2.93;;;2.50;;
8048;SDS011;20935;42.660;23.342;2023-05-13T09:06:56;4.53;;;2.63;;
8048;SDS011;20935;42.660;23.342;2023-05-13T09:09:42;2.30;;;2.10;;
8048;SDS011;20935;42.660;23.342;2023-05-13T09:12:41;4.63;;;2.70;;
8048;SDS011;20935;42.660;23.342;2023-05-13T09:15:28;5.93;;;2.57;;
8048;SDS011;20935;42.660;23.342;2023-05-13T09:18:14;6.23;;;2.70;;
8048;SDS011;20935;42.660;23.342;2023-05-13T09:24:10;11.33;;;2.97;;
8048;SDS011;20935;42.660;23.342;2023-05-13T09:27:01;4.33;;;2.57;;
8048;SDS011;20935;42.660;23.342;2023-05-13T09:29:46;3.07;;;2.70;;
8048;SDS011;20935;42.660;23.342;2023-05-13T09:32:43;4.60;;;2.90;;
8048;SDS011;20935;42.660;23.342;2023-05-13T09:35:29;5.30;;;2.83;;
8048;SDS011;20935;42.660;23.342;2023-05-13T09:38:15;5.03;;;2.47;;
8048;SDS011;20935;42.660;23.342;2023-05-13T09:41:03;3.83;;;2.90;;
8048;SDS011;20935;42.660;23.342;2023-05-13T09:43:49;5.33;;;2.90;;
8048;SDS011;20935;42.660;23.342;2023-05-13T09:46:34;12.70;;;2.97;;
8048;SDS011;20935;42.660;23.342;2023-05-13T09:49:21;25.60;;;3.80;;
8048;SDS011;20935;42.660;23.342;2023-05-13T09:52:08;8.47;;;3.53;;
8048;SDS011;20935;42.660;23.342;2023-05-13T09:54:55;6.83;;;3.33;;
8048;SDS011;20935;42.660;23.342;2023-05-13T09:57:41;6.87;;;3.10;;
8048;SDS011;20935;42.660;23.342;2023-05-13T10:00:26;12.53;;;4.47;;
8048;SDS011;20935;42.660;23.342;2023-05-13T10:03:12;6.10;;;3.87;;
8048;SDS011;20935;42.660;23.342;2023-05-13T10:05:58;8.50;;;3.83;;
8048;SDS011;20935;42.660;23.342;2023-05-13T10:08:44;7.50;;;3.40;;
8048;SDS011;20935;42.660;23.342;2023-05-13T10:11:32;5.03;;;3.27;;
8048;SDS011;20935;42.660;23.342;2023-05-13T10:14:21;5.50;;;3.10;;
8048;SDS011;20935;42.660;23.342;2023-05-13T10:17:06;6.50;;;3.23;;
8048;SDS011;20935;42.660;23.342;2023-05-13T10:19:53;7.07;;;3.30;;
8048;SDS011;20935;42.660;23.342;2023-05-13T10:22:39;4.87;;;3.10;;
8048;SDS011;20935;42.660;23.342;2023-05-13T10:25:24;6.93;;;2.97;;
8048;SDS011;20935;42.660;23.342;2023-05-13T10:28:10;7.43;;;3.57;;
8048;SDS011;20935;42.660;23.342;2023-05-13T10:30:57;6.27;;;3.20;;
8048;SDS011;20935;42.660;23.342;2023-05-13T10:33:43;7.33;;;3.63;;
8048;SDS011;20935;42.660;23.342;2023-05-13T10:36:47;3.60;;;3.00;;
8048;SDS011;20935;42.660;23.342;2023-05-13T10:39:56;8.53;;;3.50;;
8048;SDS011;20935;42.660;23.342;2023-05-13T10:42:59;5.30;;;3.07;;
8048;SDS011;20935;42.660;23.342;2023-05-13T10:45:55;6.03;;;2.90;;
8048;SDS011;20935;42.660;23.342;2023-05-13T10:48:46;6.43;;;3.47;;
8048;SDS011;20935;42.660;23.342;2023-05-13T10:51:32;6.60;;;3.40;;
8048;SDS011;20935;42.660;23.342;2023-05-13T10:54:18;6.23;;;3.10;;
8048;SDS011;20935;42.660;23.342;2023-05-13T10:57:04;5.60;;;3.43;;
8048;SDS011;20935;42.660;23.342;2023-05-13T11:03:07;5.90;;;3.23;;
8048;SDS011;20935;42.660;23.342;2023-05-13T11:06:12;5.63;;;3.00;;
8048;SDS011;20935;42.660;23.342;2023-05-13T11:08:59;5.80;;;3.20;;
8048;SDS011;20935;42.660;23.342;2023-05-13T11:11:46;4.53;;;3.13;;
8048;SDS011;20935;42.660;23.342;2023-05-13T11:14:32;7.03;;;3.33;;
8048;SDS011;20935;42.660;23.342;2023-05-13T11:17:18;3.30;;;3.00;;
8048;SDS011;20935;42.660;23.342;2023-05-13T11:20:04;4.63;;;2.80;;
8048;SDS011;20935;42.660;23.342;2023-05-13T11:22:51;4.07;;;3.30;;
8048;SDS011;20935;42.660;23.342;2023-05-13T11:25:37;5.40;;;3.23;;
8048;SDS011;20935;42.660;23.342;2023-05-13T11:31:46;4.47;;;3.20;;
8048;SDS011;20935;42.660;23.342;2023-05-13T11:34:33;5.83;;;3.07;;
8048;SDS011;20935;42.660;23.342;2023-05-13T11:37:18;5.77;;;2.80;;
8048;SDS011;20935;42.660;23.342;2023-05-13T11:40:06;5.27;;;3.20;;
8048;SDS011;20935;42.660;23.342;2023-05-13T11:42:53;6.80;;;3.17;;
8048;SDS011;20935;42.660;23.342;2023-05-13T11:45:39;5.73;;;3.10;;
8048;SDS011;20935;42.660;23.342;2023-05-13T11:48:25;4.73;;;2.90;;
8048;SDS011;20935;42.660;23.342;2023-05-13T11:51:10;4.13;;;3.13;;
8048;SDS011;20935;42.660;23.342;2023-05-13T11:53:59;5.57;;;3.30;;
8048;SDS011;20935;42.660;23.342;2023-05-13T11:56:49;4.67;;;3.33;;
8048;SDS011;20935;42.660;23.342;2023-05-13T11:59:34;4.30;;;2.97;;
8048;SDS011;20935;42.660;23.342;2023-05-13T12:02:20;3.60;;;3.17;;
8048;SDS011;20935;42.660;23.342;2023-05-13T12:05:07;3.47;;;3.10;;
8048;SDS011;20935;42.660;23.342;2023-05-13T12:07:55;3.13;;;2.83;;
8048;SDS011;20935;42.660;23.342;2023-05-13T12:10:41;3.60;;;3.20;;
8048;SDS011;20935;42.660;23.342;2023-05-13T12:13:29;3.43;;;3.13;;
8048;SDS011;20935;42.660;23.342;2023-05-13T12:16:14;4.00;;;3.00;;
8048;SDS011;20935;42.660;23.342;2023-05-13T12:19:03;5.53;;;3.63;;
8048;SDS011;20935;42.660;23.342;2023-05-13T12:21:50;5.70;;;3.37;;
8048;SDS011;20935;42.660;23.342;2023-05-13T12:24:35;4.47;;;3.10;;
8048;SDS011;20935;42.660;23.342;2023-05-13T12:27:20;4.40;;;3.00;;
8048;SDS011;20935;42.660;23.342;2023-05-13T12:30:11;5.77;;;3.37;;
8048;SDS011;20935;42.660;23.342;2023-05-13T12:32:58;3.90;;;3.00;;
8048;SDS011;20935;42.660;23.342;2023-05-13T12:35:45;3.60;;;2.87;;
8048;SDS011;20935;42.660;23.342;2023-05-13T12:38:31;3.63;;;3.10;;
8048;SDS011;20935;42.660;23.342;2023-05-13T12:41:17;3.00;;;2.77;;
8048;SDS011;20935;42.660;23.342;2023-05-13T12:44:03;4.10;;;2.80;;
8048;SDS011;20935;42.660;23.342;2023-05-13T12:46:54;3.73;;;3.10;;
8048;SDS011;20935;42.660;23.342;2023-05-13T12:49:50;3.60;;;3.03;;
8048;SDS011;20935;42.660;23.342;2023-05-13T12:52:36;4.10;;;2.97;;
8048;SDS011;20935;42.660;23.342;2023-05-13T12:55:21;3.37;;;2.73;;
8048;SDS011;20935;42.660;23.342;2023-05-13T12:58:07;3.20;;;2.90;;
8048;SDS011;20935;42.660;23.342;2023-05-13T13:00:54;3.37;;;3.07;;
8048;SDS011;20935;42.660;23.342;2023-05-13T13:03:41;4.23;;;3.27;;
8048;SDS011;20935;42.660;23.342;2023-05-13T13:06:26;4.47;;;3.40;;
8048;SDS011;20935;42.660;23.342;2023-05-13T13:09:12;4.63;;;2.97;;
8048;SDS011;20935;42.660;23.342;2023-05-13T13:11:57;4.07;;;2.80;;
8048;SDS011;20935;42.660;23.342;2023-05-13T13:14:43;4.23;;;3.40;;
8048;SDS011;20935;42.660;23.342;2023-05-13T13:17:28;4.53;;;3.27;;
8048;SDS011;20935;42.660;23.342;2023-05-13T13:20:15;3.40;;;3.10;;
8048;SDS011;20935;42.660;23.342;2023-05-13T13:23:01;3.30;;;3.00;;
8048;SDS011;20935;42.660;23.342;2023-05-13T13:25:46;4.03;;;3.17;;
8048;SDS011;20935;42.660;23.342;2023-05-13T13:28:31;4.30;;;3.10;;
8048;SDS011;20935;42.660;23.342;2023-05-13T13:31:17;3.17;;;2.87;;
8048;SDS011;20935;42.660;23.342;2023-05-13T13:34:02;3.00;;;2.70;;
8048;SDS011;20935;42.660;23.342;2023-05-13T13:36:50;3.27;;;2.97;;
8048;SDS011;20935;42.660;23.342;2023-05-13T13:39:35;5.23;;;2.87;;
8048;SDS011;20935;42.660;23.342;2023-05-13T13:42:21;3.30;;;3.00;;
8048;SDS011;20935;42.660;23.342;2023-05-13T13:45:07;3.97;;;2.70;;
8048;SDS011;20935;42.660;23.342;2023-05-13T13:47:53;2.87;;;2.67;;
8048;SDS011;20935;42.660;23.342;2023-05-13T13:50:39;3.40;;;3.10;;
8048;SDS011;20935;42.660;23.342;2023-05-13T13:53:26;4.73;;;3.30;;
8048;SDS011;20935;42.660;23.342;2023-05-13T13:56:11;3.10;;;2.80;;
8048;SDS011;20935;42.660;23.342;2023-05-13T13:58:56;3.13;;;2.63;;
8048;SDS011;20935;42.660;23.342;2023-05-13T14:01:42;3.87;;;3.47;;
8048;SDS011;20935;42.660;23.342;2023-05-13T14:04:27;3.13;;;2.83;;
8048;SDS011;20935;42.660;23.342;2023-05-13T14:07:13;3.50;;;2.97;;
8048;SDS011;20935;42.660;23.342;2023-05-13T14:10:00;5.40;;;2.93;;
8048;SDS011;20935;42.660;23.342;2023-05-13T14:12:45;3.20;;;2.90;;
8048;SDS011;20935;42.660;23.342;2023-05-13T14:15:30;4.27;;;3.10;;
8048;SDS011;20935;42.660;23.342;2023-05-13T14:18:16;3.00;;;2.80;;
8048;SDS011;20935;42.660;23.342;2023-05-13T14:21:02;3.70;;;3.40;;
8048;SDS011;20935;42.660;23.342;2023-05-13T14:23:47;6.67;;;3.00;;
8048;SDS011;20935;42.660;23.342;2023-05-13T14:26:34;4.93;;;3.63;;
8048;SDS011;20935;42.660;23.342;2023-05-13T14:29:20;6.43;;;3.00;;
8048;SDS011;20935;42.660;23.342;2023-05-13T14:32:05;3.00;;;2.70;;
8048;SDS011;20935;42.660;23.342;2023-05-13T14:34:51;3.57;;;2.60;;
8048;SDS011;20935;42.660;23.342;2023-05-13T14:37:36;5.60;;;2.90;;
8048;SDS011;20935;42.660;23.342;2023-05-13T14:40:22;4.00;;;2.90;;
8048;SDS011;20935;42.660;23.342;2023-05-13T14:43:09;3.23;;;2.80;;
8048;SDS011;20935;42.660;23.342;2023-05-13T14:45:55;5.43;;;2.97;;
8048;SDS011;20935;42.660;23.342;2023-05-13T14:48:40;4.27;;;3.20;;
8048;SDS011;20935;42.660;23.342;2023-05-13T14:51:25;4.03;;;3.30;;
8048;SDS011;20935;42.660;23.342;2023-05-13T14:54:11;3.93;;;3.03;;
8048;SDS011;20935;42.660;23.342;2023-05-13T14:56:56;8.53;;;3.37;;
8048;SDS011;20935;42.660;23.342;2023-05-13T14:59:43;6.33;;;3.03;;
8048;SDS011;20935;42.660;23.342;2023-05-13T15:02:28;4.47;;;2.90;;
8048;SDS011;20935;42.660;23.342;2023-05-13T15:05:14;4.93;;;2.80;;
8048;SDS011;20935;42.660;23.342;2023-05-13T15:07:59;3.13;;;2.83;;
8048;SDS011;20935;42.660;23.342;2023-05-13T15:10:45;3.00;;;2.80;;
8048;SDS011;20935;42.660;23.342;2023-05-13T15:13:30;3.60;;;2.70;;
8048;SDS011;20935;42.660;23.342;2023-05-13T15:16:19;3.40;;;2.83;;
8048;SDS011;20935;42.660;23.342;2023-05-13T15:19:05;4.47;;;3.27;;
8048;SDS011;20935;42.660;23.342;2023-05-13T15:21:51;4.00;;;2.87;;
8048;SDS011;20935;42.660;23.342;2023-05-13T15:24:36;3.50;;;3.03;;
8048;SDS011;20935;42.660;23.342;2023-05-13T15:27:22;3.00;;;2.70;;
8048;SDS011;20935;42.660;23.342;2023-05-13T15:30:07;4.50;;;3.33;;
8048;SDS011;20935;42.660;23.342;2023-05-13T15:32:54;3.93;;;3.30;;
8048;SDS011;20935;42.660;23.342;2023-05-13T15:35:40;2.90;;;2.67;;
8048;SDS011;20935;42.660;23.342;2023-05-13T15:38:26;3.87;;;2.90;;
8048;SDS011;20935;42.660;23.342;2023-05-13T15:41:11;3.30;;;2.60;;
8048;SDS011;20935;42.660;23.342;2023-05-13T15:43:57;2.90;;;2.57;;
8048;SDS011;20935;42.660;23.342;2023-05-13T15:46:42;3.00;;;2.80;;
8048;SDS011;20935;42.660;23.342;2023-05-13T15:49:29;4.03;;;3.40;;
8048;SDS011;20935;42.660;23.342;2023-05-13T15:52:16;3.30;;;3.00;;
8048;SDS011;20935;42.660;23.342;2023-05-13T15:55:01;3.70;;;3.30;;
8048;SDS011;20935;42.660;23.342;2023-05-13T15:57:47;3.17;;;2.87;;
8048;SDS011;20935;42.660;23.342;2023-05-13T16:00:33;3.50;;;2.90;;
8048;SDS011;20935;42.660;23.342;2023-05-13T16:03:18;3.40;;;2.83;;
8048;SDS011;20935;42.660;23.342;2023-05-13T16:06:04;3.20;;;2.90;;
8048;SDS011;20935;42.660;23.342;2023-05-13T16:08:50;3.23;;;2.93;;
8048;SDS011;20935;42.660;23.342;2023-05-13T16:11:37;3.50;;;2.80;;
8048;SDS011;20935;42.660;23.342;2023-05-13T16:14:22;4.17;;;3.03;;
8048;SDS011;20935;42.660;23.342;2023-05-13T16:17:07;3.30;;;3.00;;
8048;SDS011;20935;42.660;23.342;2023-05-13T16:19:53;3.23;;;2.93;;
8048;SDS011;20935;42.660;23.342;2023-05-13T16:22:40;3.20;;;2.47;;
8048;SDS011;20935;42.660;23.342;2023-05-13T16:25:26;3.50;;;2.93;;
8048;SDS011;20935;42.660;23.342;2023-05-13T16:28:11;3.07;;;2.77;;
8048;SDS011;20935;42.660;23.342;2023-05-13T16:30:57;4.07;;;3.27;;
8048;SDS011;20935;42.660;23.342;2023-05-13T16:33:42;3.50;;;3.20;;
8048;SDS011;20935;42.660;23.342;2023-05-13T16:36:28;2.90;;;2.70;;
8048;SDS011;20935;42.660;23.342;2023-05-13T16:39:14;3.30;;;2.67;;
8048;SDS011;20935;42.660;23.342;2023-05-13T16:42:00;3.17;;;2.83;;
8048;SDS011;20935;42.660;23.342;2023-05-13T16:44:45;3.70;;;3.03;;
8048;SDS011;20935;42.660;23.342;2023-05-13T16:47:31;2.90;;;2.70;;
8048;SDS011;20935;42.660;23.342;2023-05-13T16:50:16;3.27;;;3.00;;
8048;SDS011;20935;42.660;23.342;2023-05-13T16:53:02;4.03;;;3.20;;